Terminal Aerodrome Forecast
Issued by NWS Pittsburgh, PA

Current Version | Previous Version | Graphics & Text | Print | Product List | Glossary On
Versions: 1 2 3 4 5 6 7 8 9 10 11 12 13 14 15 16 17 18 19 20 21 22 23 24 25 26 27 28 29 30 31
000
FTUS41 KPBZ 201452 AAA
TAFPIT
TAF AMD
KPIT 201452Z 2015/2118 15003KT P6SM SCT030 BKN050
     FM201530 22010G20KT 5SM -TSRA BKN045CB
     FM201645 22010G20KT P6SM BKN050
     FM210400 20008KT 5SM -SHRA VCTS OVC040CB
     FM210700 23010KT P6SM -SHRA OVC025
     FM211100 28010KT P6SM BKN015
     FM211400 28012KT P6SM BKN035=

USA.gov is the U.S. government's official web portal to all federal, state and local government web resources and services.